createdAt,value
2023-04-11T00:00:01.726Z,100850.34
2023-04-11T00:03:00.074Z,100801.34
2023-04-11T00:05:46.849Z,100764.63
2023-04-11T00:08:32.517Z,100736.03
2023-04-11T00:11:18.321Z,100782.78
2023-04-11T00:14:05.496Z,100753.50
2023-04-11T00:16:53.764Z,100715.94
2023-04-11T00:19:40.081Z,100772.31
2023-04-11T00:22:27.592Z,100774.84
2023-04-11T00:25:13.621Z,100775.97
2023-04-11T00:27:59.391Z,100780.72
2023-04-11T00:30:45.138Z,100801.38
2023-04-11T00:33:32.183Z,100815.06
2023-04-11T00:36:18.610Z,100816.88
2023-04-11T00:39:04.935Z,100828.47
2023-04-11T00:41:50.716Z,100848.09
2023-04-11T00:44:37.005Z,100861.63
2023-04-11T00:47:22.872Z,100868.06
2023-04-11T00:50:13.767Z,100874.19
2023-04-11T00:52:59.461Z,100872.53
2023-04-11T00:55:45.292Z,100878.66
2023-04-11T00:58:32.020Z,100897.22
2023-04-11T01:01:19.812Z,100893.03
2023-04-11T01:04:06.376Z,100892.19
2023-04-11T01:06:55.527Z,100897.78
2023-04-11T01:09:41.582Z,100896.81
2023-04-11T01:12:27.556Z,100897.78
2023-04-11T01:15:13.209Z,100898.75
2023-04-11T01:18:02.074Z,100898.63
2023-04-11T01:20:48.326Z,100879.38
2023-04-11T01:23:35.428Z,100871.28
2023-04-11T01:26:21.670Z,100863.84
2023-04-11T01:29:08.297Z,100856.47
2023-04-11T01:31:54.929Z,100847.69
2023-04-11T01:34:41.173Z,100846.03
2023-04-11T01:37:27.280Z,100835.66
2023-04-11T01:40:14.925Z,100825.06
2023-04-11T01:43:01.762Z,100813.78
2023-04-11T01:45:47.697Z,100806.81
2023-04-11T01:48:34.582Z,100795.66
2023-04-11T01:51:20.913Z,100778.22
2023-04-11T01:54:06.728Z,100759.13
2023-04-11T01:56:54.829Z,100776.81
2023-04-11T01:59:40.622Z,100766.50
2023-04-11T02:02:27.092Z,100749.88
2023-04-11T02:05:13.001Z,100739.56
2023-04-11T02:07:58.749Z,100719.94
2023-04-11T02:10:44.616Z,100730.81
2023-04-11T02:13:31.895Z,100712.25
2023-04-11T02:16:20.701Z,100729.13
2023-04-11T02:19:07.081Z,100729.38
2023-04-11T02:21:52.906Z,100712.09
2023-04-11T02:24:39.285Z,100688.97
2023-04-11T02:27:25.025Z,100676.13
2023-04-11T02:30:15.090Z,100666.81
2023-04-11T02:33:03.980Z,100673.78
2023-04-11T02:35:49.913Z,100680.88
2023-04-11T02:38:37.442Z,100676.44
2023-04-11T02:41:23.204Z,100665.69
2023-04-11T02:44:11.380Z,100665.56
2023-04-11T02:47:00.755Z,100660.81
2023-04-11T02:49:46.804Z,100650.22
2023-04-11T02:52:37.542Z,100655.22
2023-04-11T02:55:24.055Z,100655.50
2023-04-11T02:58:11.032Z,100652.72
2023-04-11T03:00:57.121Z,100654.13
2023-04-11T03:03:45.136Z,100660.53
2023-04-11T03:06:33.280Z,100676.69
2023-04-11T03:09:20.396Z,100725.91
2023-04-11T03:12:07.077Z,100737.41
2023-04-11T03:14:55.666Z,100727.91
2023-04-11T03:17:41.667Z,100698.19
2023-04-11T03:20:32.845Z,100690.66
2023-04-11T03:23:19.053Z,100675.47
2023-04-11T03:26:05.150Z,100672.66
2023-04-11T03:28:51.628Z,100675.13
2023-04-11T03:31:38.840Z,100679.13
2023-04-11T03:34:26.029Z,100675.78
2023-04-11T03:37:14.273Z,100668.47
2023-04-11T03:40:00.547Z,100666.09
2023-04-11T03:42:47.022Z,100671.59
2023-04-11T03:45:37.093Z,100677.97
2023-04-11T03:48:29.797Z,100688.78
2023-04-11T03:51:22.143Z,100700.69
2023-04-11T03:54:24.603Z,100726.69
2023-04-11T03:57:12.934Z,100732.09
2023-04-11T04:00:00.269Z,100741.97
2023-04-11T04:02:54.668Z,100761.56
2023-04-11T04:05:48.422Z,100768.78
2023-04-11T04:08:35.822Z,100781.84
2023-04-11T04:11:23.383Z,100782.06
2023-04-11T04:14:16.092Z,100803.22
2023-04-11T04:17:02.390Z,100802.50
2023-04-11T04:19:49.550Z,100814.03
2023-04-11T04:22:36.493Z,100811.66
2023-04-11T04:25:24.535Z,100825.56
2023-04-11T04:28:14.554Z,100836.84
2023-04-11T04:31:02.114Z,100847.41
2023-04-11T04:33:53.875Z,100858.69
2023-04-11T04:36:47.585Z,100859.56
2023-04-11T04:39:38.070Z,100870.00
2023-04-11T04:42:25.654Z,100867.22
2023-04-11T04:45:16.267Z,100865.44
2023-04-11T04:48:02.592Z,100870.72
2023-04-11T04:50:48.848Z,100876.97
2023-04-11T04:53:38.509Z,100877.09
2023-04-11T04:56:26.168Z,100880.44
2023-04-11T04:59:15.564Z,100886.56
2023-04-11T05:02:08.096Z,100895.19
2023-04-11T05:04:54.294Z,100910.22
2023-04-11T05:07:40.802Z,100915.63
2023-04-11T05:10:26.941Z,100907.56
2023-04-11T05:13:13.178Z,100924.97
2023-04-11T05:15:59.309Z,100934.56
2023-04-11T05:18:47.377Z,100950.19
2023-04-11T05:21:33.914Z,100939.63
2023-04-11T05:24:20.316Z,100941.03
2023-04-11T05:27:06.437Z,100953.06
2023-04-11T05:29:54.103Z,100956.41
2023-04-11T05:32:40.627Z,100965.06
2023-04-11T05:35:28.305Z,100977.31
2023-04-11T05:38:14.541Z,100968.41
2023-04-11T05:41:00.449Z,100973.56
2023-04-11T05:43:46.849Z,100977.66
2023-04-11T05:46:35.527Z,100976.22
2023-04-11T05:49:21.373Z,100978.47
2023-04-11T05:52:09.854Z,100985.31
2023-04-11T05:54:55.880Z,100992.19
2023-04-11T05:57:41.686Z,100991.44
2023-04-11T06:00:30.890Z,101008.75
2023-04-11T06:03:17.903Z,101021.41
2023-04-11T06:06:04.175Z,101020.91
2023-04-11T06:08:51.988Z,101027.03
2023-04-11T06:11:38.035Z,101024.63
2023-04-11T06:14:23.827Z,101003.25
2023-04-11T06:17:09.601Z,101015.50
2023-04-11T06:19:55.680Z,101008.91
2023-04-11T06:22:41.653Z,101016.13
2023-04-11T06:25:29.088Z,101011.78
2023-04-11T06:28:14.878Z,101023.56
2023-04-11T06:31:00.655Z,101014.94
2023-04-11T06:33:46.853Z,101016.88
2023-04-11T06:36:32.976Z,101019.63
2023-04-11T06:39:19.358Z,101027.44
2023-04-11T06:42:06.640Z,101019.50
2023-04-11T06:44:53.154Z,101030.91
2023-04-11T06:47:39.114Z,101019.97
2023-04-11T06:50:24.874Z,101022.38
2023-04-11T06:53:11.118Z,101025.38
2023-04-11T06:55:57.869Z,101023.41
2023-04-11T06:58:45.300Z,101028.72
2023-04-11T07:01:35.567Z,101026.69
2023-04-11T07:04:21.939Z,101033.03
2023-04-11T07:07:07.978Z,101027.09
2023-04-11T07:09:53.728Z,101021.94
2023-04-11T07:12:39.449Z,101015.53
2023-04-11T07:15:27.688Z,101003.38
2023-04-11T07:18:13.709Z,100994.81
2023-04-11T07:21:00.080Z,100996.94
2023-04-11T07:23:45.916Z,101004.66
2023-04-11T07:26:32.688Z,100994.81
2023-04-11T07:29:19.342Z,100986.63
2023-04-11T07:32:06.810Z,100980.56
2023-04-11T07:34:52.801Z,100976.78
2023-04-11T07:37:38.766Z,100975.88
2023-04-11T07:40:24.665Z,100978.63
2023-04-11T07:43:10.488Z,100972.84
2023-04-11T07:45:57.060Z,100973.59
2023-04-11T07:48:44.145Z,100956.03
2023-04-11T07:51:30.028Z,100939.44
2023-04-11T07:54:15.890Z,100919.25
2023-04-11T07:57:02.066Z,100918.28
2023-04-11T07:59:48.325Z,100890.09
2023-04-11T08:02:34.581Z,100892.09
2023-04-11T08:05:22.184Z,100898.53
2023-04-11T08:08:08.296Z,100880.03
2023-04-11T08:10:54.784Z,100861.47
2023-04-11T08:13:40.668Z,100847.03
2023-04-11T08:16:26.780Z,100816.50
2023-04-11T08:19:13.080Z,100787.91
2023-04-11T08:22:00.151Z,100754.00
2023-04-11T08:24:46.578Z,100725.59
2023-04-11T08:27:32.491Z,100697.03
2023-04-11T08:30:18.490Z,100659.22
2023-04-11T08:33:04.631Z,100621.88
2023-04-11T08:35:50.610Z,100609.97
2023-04-11T08:38:37.738Z,100607.94
2023-04-11T08:41:23.782Z,100609.53
2023-04-11T08:44:11.655Z,100593.88
2023-04-11T08:46:57.449Z,100597.16
2023-04-11T08:49:43.345Z,100612.38
2023-04-11T08:52:29.695Z,100618.22
2023-04-11T08:55:16.845Z,100610.03
2023-04-11T08:58:03.703Z,100594.97
2023-04-11T09:00:49.656Z,100580.59
2023-04-11T09:03:36.613Z,100584.50
2023-04-11T09:06:22.435Z,100575.94
2023-04-11T09:09:08.571Z,100575.88
2023-04-11T09:11:55.795Z,100578.81
2023-04-11T09:14:41.988Z,100569.19
2023-04-11T09:17:28.648Z,100565.19
2023-04-11T09:20:18.621Z,100557.69
2023-04-11T09:23:04.778Z,100552.16
2023-04-11T09:25:50.361Z,100548.97
2023-04-11T09:28:44.572Z,100561.63
2023-04-11T09:31:39.844Z,100570.78
2023-04-11T09:34:27.679Z,100580.41
2023-04-11T09:37:13.532Z,100565.81
2023-04-11T09:40:00.084Z,100567.47
2023-04-11T09:42:46.643Z,100574.31
2023-04-11T09:45:44.146Z,100576.13
2023-04-11T09:48:46.649Z,100587.50
2023-04-11T09:51:44.455Z,100578.19
2023-04-11T09:54:30.201Z,100583.66
2023-04-11T09:57:16.051Z,100566.69
2023-04-11T10:00:02.247Z,100562.69
2023-04-11T10:02:53.802Z,100562.50
2023-04-11T10:05:39.817Z,100564.50
2023-04-11T10:08:28.275Z,100567.16
2023-04-11T10:11:14.712Z,100562.84
2023-04-11T10:14:00.508Z,100562.19
2023-04-11T10:17:01.468Z,100565.47
2023-04-11T10:19:48.590Z,100560.06
2023-04-11T10:22:53.330Z,100555.56
2023-04-11T10:25:49.066Z,100558.56
2023-04-11T10:28:37.747Z,100543.63
2023-04-11T10:31:23.813Z,100544.72
2023-04-11T10:34:13.168Z,100544.22
2023-04-11T10:37:04.618Z,100526.94
2023-04-11T10:40:09.251Z,100537.59
2023-04-11T10:42:55.308Z,100522.69
2023-04-11T10:45:42.632Z,100518.16
2023-04-11T10:48:28.692Z,100527.41
2023-04-11T10:51:23.335Z,100528.81
2023-04-11T10:54:18.910Z,100525.84
2023-04-11T10:57:04.673Z,100517.06
2023-04-11T11:00:15.697Z,100517.75
2023-04-11T11:03:01.467Z,100537.94
2023-04-11T11:05:47.746Z,100525.97
2023-04-11T11:08:34.086Z,100511.16
2023-04-11T11:11:21.426Z,100515.59
2023-04-11T11:14:08.960Z,100511.66
2023-04-11T11:16:54.727Z,100498.19
2023-04-11T11:19:44.044Z,100505.13
2023-04-11T11:22:30.067Z,100494.97
2023-04-11T11:25:15.991Z,100485.91
2023-04-11T11:28:04.592Z,100514.28
2023-04-11T11:30:52.994Z,100506.09
2023-04-11T11:33:40.787Z,100511.19
2023-04-11T11:36:26.671Z,100517.13
2023-04-11T11:39:12.484Z,100522.53
2023-04-11T11:41:58.378Z,100524.38
2023-04-11T11:44:45.745Z,100520.84
2023-04-11T11:47:31.815Z,100521.53
2023-04-11T11:50:27.712Z,100517.06
2023-04-11T11:53:14.602Z,100518.88
2023-04-11T11:56:00.657Z,100513.44
2023-04-11T11:58:46.745Z,100519.47
2023-04-11T12:01:34.015Z,100512.06
2023-04-11T12:04:20.357Z,100508.31
2023-04-11T12:07:09.728Z,100504.56
2023-04-11T12:09:56.968Z,100501.56
2023-04-11T12:12:43.543Z,100502.66
2023-04-11T12:15:40.548Z,100496.88
2023-04-11T12:18:28.486Z,100489.97
2023-04-11T12:21:14.646Z,100476.81
2023-04-11T12:24:00.445Z,100478.88
2023-04-11T12:27:05.473Z,100481.59
2023-04-11T12:29:52.668Z,100479.91
2023-04-11T12:32:38.741Z,100490.66
2023-04-11T12:35:25.807Z,100509.53
2023-04-11T12:38:13.343Z,100518.41
2023-04-11T12:41:20.349Z,100526.91
2023-04-11T12:44:08.429Z,100556.31
2023-04-11T12:46:54.211Z,100558.84
2023-04-11T12:49:39.995Z,100579.09
2023-04-11T12:52:27.229Z,100560.66
2023-04-11T12:55:13.410Z,100565.38
2023-04-11T12:57:59.714Z,100578.78
2023-04-11T13:00:45.692Z,100586.63
2023-04-11T13:03:31.498Z,100602.84
2023-04-11T13:06:18.930Z,100605.97
2023-04-11T13:09:07.778Z,100620.03
2023-04-11T13:11:54.118Z,100632.72
2023-04-11T13:14:40.060Z,100644.13
2023-04-11T13:17:26.063Z,100646.63
2023-04-11T13:20:12.428Z,100666.31
2023-04-11T13:22:58.639Z,100665.13
2023-04-11T13:25:45.851Z,100677.16
2023-04-11T13:28:34.696Z,100697.13
2023-04-11T13:31:26.313Z,100692.13
2023-04-11T13:34:12.573Z,100695.13
2023-04-11T13:36:58.499Z,100699.78
2023-04-11T13:39:44.970Z,100710.63
2023-04-11T13:42:32.043Z,100711.72
2023-04-11T13:45:17.923Z,100708.06
2023-04-11T13:48:03.649Z,100713.53
2023-04-11T13:50:49.445Z,100727.81
2023-04-11T13:53:35.319Z,100724.91
2023-04-11T13:56:21.414Z,100708.59
2023-04-11T13:59:08.708Z,100694.56
2023-04-11T14:01:54.543Z,100717.47
2023-04-11T14:04:40.572Z,100733.69
2023-04-11T14:07:26.948Z,100736.53
2023-04-11T14:10:12.662Z,100737.78
2023-04-11T14:12:58.434Z,100723.66
2023-04-11T14:15:47.690Z,100730.56
2023-04-11T14:18:35.848Z,100745.28
2023-04-11T14:21:21.769Z,100746.94
2023-04-11T14:24:07.795Z,100742.72
2023-04-11T14:26:53.708Z,100759.97
2023-04-11T14:29:39.417Z,100754.56
2023-04-11T14:32:26.761Z,100763.84
2023-04-11T14:35:13.037Z,100761.88
2023-04-11T14:37:59.325Z,100758.31
2023-04-11T14:40:45.987Z,100756.03
2023-04-11T14:43:32.186Z,100758.38
2023-04-11T14:46:18.226Z,100752.56
2023-04-11T14:49:06.238Z,100761.22
2023-04-11T14:51:52.013Z,100750.84
2023-04-11T14:54:38.070Z,100748.44
2023-04-11T14:57:24.241Z,100741.91
2023-04-11T15:00:15.381Z,100740.81
2023-04-11T15:03:01.510Z,100753.38
2023-04-11T15:05:48.696Z,100770.22
2023-04-11T15:08:35.020Z,100764.31
2023-04-11T15:11:20.840Z,100774.16
2023-04-11T15:14:06.595Z,100768.72
2023-04-11T15:16:52.410Z,100771.72
2023-04-11T15:19:38.498Z,100783.91
2023-04-11T15:22:26.331Z,100780.25
2023-04-11T15:25:12.704Z,100780.59
2023-04-11T15:27:58.733Z,100780.06
2023-04-11T15:30:47.235Z,100791.84
2023-04-11T15:33:33.284Z,100777.97
2023-04-11T15:36:19.035Z,100785.56
2023-04-11T15:39:06.239Z,100785.34
2023-04-11T15:41:52.285Z,100784.97
2023-04-11T15:44:38.078Z,100785.78
2023-04-11T15:47:24.010Z,100787.59
2023-04-11T15:50:10.596Z,100781.22
2023-04-11T15:52:57.869Z,100786.66
2023-04-11T15:55:46.821Z,100780.25
2023-04-11T15:58:33.894Z,100771.63
2023-04-11T16:01:22.647Z,100778.88
2023-04-11T16:04:08.972Z,100778.19
2023-04-11T16:06:56.818Z,100778.63
2023-04-11T16:09:42.587Z,100782.00
2023-04-11T16:12:29.738Z,100778.66
2023-04-11T16:15:15.588Z,100769.19
2023-04-11T16:18:01.433Z,100768.63
2023-04-11T16:20:47.725Z,100769.63
2023-04-11T16:23:33.542Z,100767.38
2023-04-11T16:26:19.365Z,100772.97
2023-04-11T16:29:06.541Z,100769.78
2023-04-11T16:31:52.231Z,100773.56
2023-04-11T16:34:37.939Z,100774.41
2023-04-11T16:37:23.802Z,100773.16
2023-04-11T16:40:11.070Z,100774.25
2023-04-11T16:42:57.269Z,100776.22
2023-04-11T16:45:45.041Z,100772.03
2023-04-11T16:48:31.510Z,100779.31
2023-04-11T16:51:18.325Z,100774.84
2023-04-11T16:54:09.291Z,100772.47
2023-04-11T16:56:55.662Z,100772.63
2023-04-11T16:59:41.847Z,100766.75
2023-04-11T17:02:29.576Z,100764.94
2023-04-11T17:05:18.741Z,100766.03
2023-04-11T17:08:04.924Z,100765.34
2023-04-11T17:10:51.015Z,100769.81
2023-04-11T17:13:37.215Z,100773.03
2023-04-11T17:16:23.099Z,100772.34
2023-04-11T17:19:10.727Z,100764.53
2023-04-11T17:21:57.405Z,100759.38
2023-04-11T17:24:43.063Z,100766.06
2023-04-11T17:27:29.970Z,100767.47
2023-04-11T17:30:16.657Z,100758.28
2023-04-11T17:33:02.656Z,100756.06
2023-04-11T17:35:50.341Z,100760.38
2023-04-11T17:38:37.524Z,100755.63
2023-04-11T17:41:23.651Z,100758.97
2023-04-11T17:44:09.389Z,100762.06
2023-04-11T17:46:55.586Z,100765.22
2023-04-11T17:49:41.449Z,100755.63
2023-04-11T17:52:28.581Z,100760.91
2023-04-11T17:55:15.362Z,100757.25
2023-04-11T17:58:01.172Z,100766.47
2023-04-11T18:00:55.712Z,100761.13
2023-04-11T18:03:43.960Z,100762.53
2023-04-11T18:06:29.892Z,100773.06
2023-04-11T18:09:17.574Z,100771.38
2023-04-11T18:12:03.990Z,100777.47
2023-04-11T18:14:50.774Z,100785.25
2023-04-11T18:17:36.889Z,100794.69
2023-04-11T18:20:22.895Z,100790.44
2023-04-11T18:23:09.138Z,100806.16
2023-04-11T18:25:56.560Z,100826.88
2023-04-11T18:28:42.432Z,100833.91
2023-04-11T18:31:28.297Z,100833.00
2023-04-11T18:34:14.346Z,100833.91
2023-04-11T18:37:00.699Z,100832.13
2023-04-11T18:39:46.936Z,100835.69
2023-04-11T18:42:34.008Z,100836.44
2023-04-11T18:45:21.698Z,100842.63
2023-04-11T18:48:07.987Z,100846.38
2023-04-11T18:51:00.391Z,100855.03
2023-04-11T18:53:46.224Z,100856.63
2023-04-11T18:56:32.329Z,100858.28
2023-04-11T18:59:23.689Z,100859.75
2023-04-11T19:02:11.633Z,100866.25
2023-04-11T19:04:57.872Z,100860.88
2023-04-11T19:07:44.110Z,100867.44
2023-04-11T19:10:30.277Z,100877.41
2023-04-11T19:13:16.401Z,100881.69
2023-04-11T19:16:04.172Z,100896.81
2023-04-11T19:18:50.266Z,100889.66
2023-04-11T19:21:36.124Z,100900.94
2023-04-11T19:24:22.232Z,100899.81
2023-04-11T19:27:08.624Z,100904.00
2023-04-11T19:29:54.757Z,100902.50
2023-04-11T19:32:45.569Z,100904.41
2023-04-11T19:35:32.461Z,100897.81
2023-04-11T19:38:18.175Z,100904.16
2023-04-11T19:41:10.473Z,100903.69
2023-04-11T19:43:56.723Z,100897.66
2023-04-11T19:46:42.874Z,100901.34
2023-04-11T19:49:31.820Z,100900.75
2023-04-11T19:52:18.172Z,100908.16
2023-04-11T19:55:04.546Z,100906.72
2023-04-11T19:57:59.022Z,100900.91
2023-04-11T20:00:46.004Z,100900.19
2023-04-11T20:03:33.140Z,100897.41
2023-04-11T20:06:22.715Z,100894.34
2023-04-11T20:09:09.193Z,100897.56
2023-04-11T20:11:56.693Z,100903.47
2023-04-11T20:14:48.835Z,100906.53
2023-04-11T20:17:34.962Z,100905.41
2023-04-11T20:20:22.092Z,100909.41
2023-04-11T20:23:12.256Z,100921.22
2023-04-11T20:26:02.244Z,100921.75
2023-04-11T20:28:49.655Z,100920.28
2023-04-11T20:31:38.965Z,100931.25
2023-04-11T20:34:26.874Z,100937.84
2023-04-11T20:37:17.077Z,100948.81
2023-04-11T20:40:07.931Z,100959.75
2023-04-11T20:42:56.428Z,100970.88
2023-04-11T20:45:42.912Z,100989.59
2023-04-11T20:48:30.018Z,101004.28
2023-04-11T20:51:16.249Z,101009.34
2023-04-11T20:54:01.850Z,101014.69
2023-04-11T20:56:49.087Z,101022.88
2023-04-11T20:59:36.224Z,101033.50
2023-04-11T21:02:22.223Z,101047.13
2023-04-11T21:05:09.435Z,101051.84
2023-04-11T21:07:55.497Z,101052.22
2023-04-11T21:10:41.073Z,101060.41
2023-04-11T21:13:28.379Z,101063.31
2023-04-11T21:16:14.112Z,101072.44
2023-04-11T21:18:59.836Z,101070.28
2023-04-11T21:21:45.873Z,101068.06
2023-04-11T21:24:32.262Z,101063.00
2023-04-11T21:27:18.087Z,101064.88
2023-04-11T21:30:06.161Z,101073.97
2023-04-11T21:32:52.134Z,101078.47
2023-04-11T21:35:38.463Z,101077.06
2023-04-11T21:38:24.464Z,101080.84
2023-04-11T21:41:10.666Z,101079.31
2023-04-11T21:43:56.844Z,101081.38
2023-04-11T21:46:44.745Z,101084.00
2023-04-11T21:49:30.622Z,101081.66
2023-04-11T21:52:16.305Z,101079.25
2023-04-11T21:55:01.971Z,101080.44
2023-04-11T21:57:47.729Z,101084.84
2023-04-11T22:00:33.559Z,101089.44
2023-04-11T22:03:20.990Z,101090.75
2023-04-11T22:06:07.393Z,101095.25
2023-04-11T22:08:53.391Z,101092.78
2023-04-11T22:11:39.171Z,101099.16
2023-04-11T22:14:27.406Z,101098.59
2023-04-11T22:17:14.390Z,101097.94
2023-04-11T22:20:01.492Z,101098.03
2023-04-11T22:22:47.935Z,101102.53
2023-04-11T22:25:34.457Z,101108.03
2023-04-11T22:28:20.306Z,101109.31
2023-04-11T22:31:06.429Z,101109.22
2023-04-11T22:33:52.757Z,101106.78
2023-04-11T22:36:39.809Z,101106.88
2023-04-11T22:39:25.888Z,101107.91
2023-04-11T22:42:12.642Z,101100.97
2023-04-11T22:44:58.643Z,101109.09
2023-04-11T22:47:45.666Z,101107.50
2023-04-11T22:50:32.911Z,101117.97
2023-04-11T22:53:20.082Z,101117.22
2023-04-11T22:56:06.163Z,101101.78
2023-04-11T22:58:52.276Z,101094.09
2023-04-11T23:01:38.467Z,101088.34
2023-04-11T23:04:24.650Z,101097.22
2023-04-11T23:07:10.892Z,101087.66
2023-04-11T23:10:00.985Z,101087.59
2023-04-11T23:12:47.319Z,101086.81
2023-04-11T23:15:33.419Z,101079.81
2023-04-11T23:18:19.561Z,101081.59
2023-04-11T23:21:05.793Z,101089.34
2023-04-11T23:23:52.240Z,101082.53
2023-04-11T23:26:39.595Z,101079.16
2023-04-11T23:29:25.855Z,101074.00
2023-04-11T23:32:11.932Z,101069.69
2023-04-11T23:34:57.834Z,101074.00
2023-04-11T23:37:44.706Z,101068.75
2023-04-11T23:40:31.741Z,101070.63
2023-04-11T23:43:18.791Z,101068.00
2023-04-11T23:46:04.889Z,101060.28
2023-04-11T23:48:51.188Z,101057.94
2023-04-11T23:51:37.244Z,101055.91
2023-04-11T23:54:23.075Z,101055.00
2023-04-11T23:57:08.712Z,101046.94
2023-04-11T23:59:55.969Z,101043.38
